Airfield :
LOGIN :

Register | Disclaimer

   EN    FR    IT 

 










Legend :    VFR   Marginal VFR   IFR   Intensive IFR   Very Intensive IFR
Visi :
Ceiling :
>= 8 km
>= 3000ft
5 to 8 km
1000 to 3000 ft
1500m to 5 km
500 to 1000 ft
800 to 1500m
200 to 500 ft
< 800m
< 200 ft
Symbols :   Thunderstorms  Fog  Heavy snow  Heavy precipitations  Wind > 20 kt
SIGMETs :     Misc.  Thunderstorms  Icing  Turbulence  Mountain Waves  Volcanic Ashes







- Airport Elevation : 16 ft
- IATA code : EAS


LESO - San Sebastian Fuenterrabia

CURRENT METAR :
  • 210830Z 04007KT 010V070 9999 SCT021 24/20 Q1022

EXPIRED METARs :
  • 210800Z 06005KT 010V100 9999 FEW019 24/20 Q1021
  • 210730Z 03003KT 010V090 9999 FEW012 23/20 Q1021
  • 210700Z VRB02KT 9999 FEW007 23/20 Q1021
  • 210630Z 12003KT 080V160 9999 FEW006 21/19 Q1021
  • 210600Z VRB01KT 9999 FEW006 SCT044 21/19 Q1021

TAF TAF LESO
Valid from the 21 at 06:00 until the 22 at 06:00 UTC


210500Z 2106/2206 09006KT 9999 FEW010 SCT045 TX26/2115Z TN20/2206Z
PROB30
TEMPO 2111/2116 01010KT
No reported NOTAMs for that airfield.



MET'MAP, your aeronautical weather chart ! - Copyright ORBIFLY December 2007 - Disclaimer

ORBIFLY MET'MAP TEAM :

Programming & Development : Alexandra Zaïnal
Concept & Development : Baudouin d'Aumeries
Co-Development & Prog : Marc-Olivier Méhu
Technical & hardware support : Manuel Goepfert

Contact : metmap@orbifly.com




SOURCES & CREDITS :

   NOAA